Time;durP1;ratioP1;P1;durP2;ratioP2;P2;SDS_P1;SDS_P2;PMS_P1;PMS_P2;Temp;Humidity;BMP_temperature;BMP_pressure;BME280_temperature;BME280_humidity;BME280_pressure;Samples;Min_cycle;Max_cycle;Signal;HPM_P1;HPM_P2
2021/09/28 00:02:20;;;;;;;2.15;1.00;;;17.40;70.00;;;;;;5053185;28;20120;-81
2021/09/28 00:04:46;;;;;;;1.40;0.98;;;17.40;70.00;;;;;;5060385;28;20029;-80
2021/09/28 00:07:12;;;;;;;1.58;1.20;;;17.40;70.00;;;;;;5051212;28;20064;-79
2021/09/28 00:09:37;;;;;;;2.75;1.42;;;17.30;70.00;;;;;;5048984;28;20029;-81
2021/09/28 00:12:03;;;;;;;1.02;0.93;;;17.30;70.00;;;;;;5037749;28;20053;-80
2021/09/28 00:14:29;;;;;;;2.95;1.17;;;17.30;70.00;;;;;;5051080;28;20484;-83
2021/09/28 00:16:55;;;;;;;2.55;1.50;;;17.30;70.00;;;;;;5042562;28;20029;-80
2021/09/28 00:19:20;;;;;;;2.67;1.38;;;17.30;70.00;;;;;;5051260;28;20033;-82
2021/09/28 00:21:46;;;;;;;1.35;1.17;;;17.30;70.00;;;;;;5055160;28;20040;-80
2021/09/28 00:24:14;;;;;;;2.08;1.30;;;17.30;70.10;;;;;;5062818;28;20055;-82
2021/09/28 00:26:40;;;;;;;3.22;1.50;;;17.20;70.00;;;;;;5054884;28;20040;-80
2021/09/28 00:29:05;;;;;;;2.17;1.55;;;17.20;70.10;;;;;;5051240;28;20033;-80
2021/09/28 00:31:31;;;;;;;2.35;1.17;;;17.20;70.10;;;;;;5039320;28;20070;-84
2021/09/28 00:33:57;;;;;;;1.60;1.13;;;17.20;70.10;;;;;;5059970;28;20493;-81
2021/09/28 00:36:23;;;;;;;2.58;1.70;;;17.20;70.10;;;;;;5046188;28;20025;-80
2021/09/28 00:38:50;;;;;;;1.48;1.10;;;17.10;70.10;;;;;;5034349;28;20124;-80
2021/09/28 00:41:16;;;;;;;2.45;1.25;;;17.20;70.20;;;;;;5050629;28;20033;-80
2021/09/28 00:43:53;;;;;;;1.23;0.93;;;17.20;70.20;;;;;;5046628;28;20028;-80
2021/09/28 00:46:20;;;;;;;1.30;1.20;;;17.10;70.20;;;;;;5058752;28;20037;-80
2021/09/28 00:48:47;;;;;;;1.58;1.10;;;17.10;70.10;;;;;;5035194;28;20033;-83
2021/09/28 00:51:14;;;;;;;2.13;1.30;;;17.10;70.10;;;;;;5037128;28;20091;-81
2021/09/28 00:54:06;;;;;;;2.10;1.10;;;17.10;70.20;;;;;;5059490;28;20036;-80
2021/09/28 00:56:32;;;;;;;2.00;1.30;;;17.10;70.20;;;;;;5049311;28;20048;-80
2021/09/28 00:59:00;;;;;;;2.38;1.30;;;17.10;70.10;;;;;;5017460;28;20037;-80
2021/09/28 01:01:26;;;;;;;1.42;1.25;;;17.00;70.10;;;;;;5034047;28;20449;-80
2021/09/28 01:03:52;;;;;;;1.88;1.10;;;17.00;70.10;;;;;;5025707;28;20031;-80
2021/09/28 01:06:18;;;;;;;1.55;0.93;;;17.00;70.20;;;;;;5040425;28;20717;-80
2021/09/28 01:08:44;;;;;;;2.88;1.25;;;17.00;70.20;;;;;;5042638;28;20081;-80
2021/09/28 01:11:11;;;;;;;1.67;1.20;;;17.00;70.20;;;;;;5043493;28;20053;-80
2021/09/28 01:13:36;;;;;;;2.15;1.20;;;16.90;70.20;;;;;;5054050;28;20386;-80
2021/09/28 01:16:06;;;;;;;1.48;1.00;;;16.90;70.10;;;;;;5054884;28;20033;-81
2021/09/28 01:18:33;;;;;;;1.88;1.00;;;16.90;70.20;;;;;;5057776;28;20859;-80
2021/09/28 01:21:00;;;;;;;2.70;1.25;;;16.80;70.10;;;;;;5056350;28;20043;-80
2021/09/28 01:23:26;;;;;;;1.23;1.10;;;16.90;70.20;;;;;;5073068;28;20025;-80
2021/09/28 01:25:52;;;;;;;2.38;1.17;;;16.90;70.20;;;;;;5047347;28;20039;-80
2021/09/28 01:28:19;;;;;;;2.00;1.10;;;16.80;70.10;;;;;;5054586;28;20033;-79
2021/09/28 01:30:45;;;;;;;1.88;1.17;;;16.80;70.20;;;;;;5061026;28;20041;-80
2021/09/28 01:33:11;;;;;;;1.15;1.05;;;16.80;70.20;;;;;;5054121;28;20036;-80
2021/09/28 01:35:38;;;;;;;1.75;1.25;;;16.80;70.20;;;;;;5060004;28;20031;-79
2021/09/28 01:38:04;;;;;;;1.20;1.10;;;16.80;70.20;;;;;;5047828;28;20030;-80
2021/09/28 01:40:30;;;;;;;2.80;1.10;;;16.70;70.20;;;;;;5058319;28;20033;-80
2021/09/28 01:42:56;;;;;;;1.58;1.00;;;16.70;70.20;;;;;;5048799;28;20058;-79
2021/09/28 01:45:22;;;;;;;1.27;1.10;;;16.70;70.20;;;;;;5062583;28;20041;-81
2021/09/28 01:47:48;;;;;;;1.95;1.20;;;16.70;70.20;;;;;;5067066;28;20062;-80
2021/09/28 01:50:13;;;;;;;1.52;1.20;;;16.70;70.20;;;;;;5041273;28;20090;-79
2021/09/28 01:52:39;;;;;;;1.70;1.10;;;16.60;70.20;;;;;;5053640;28;20518;-81
2021/09/28 01:55:07;;;;;;;1.67;1.20;;;16.60;70.20;;;;;;5044506;28;20033;-80
2021/09/28 01:57:33;;;;;;;1.17;1.00;;;16.60;70.20;;;;;;5054836;28;20037;-80
2021/09/28 02:00:01;;;;;;;1.13;1.00;;;16.60;70.20;;;;;;5061887;28;20086;-80
2021/09/28 02:02:27;;;;;;;3.25;1.45;;;16.60;70.20;;;;;;5062920;28;20032;-80
2021/09/28 02:04:52;;;;;;;1.65;1.13;;;16.60;70.20;;;;;;5056969;28;20041;-81
2021/09/28 02:07:18;;;;;;;1.50;1.20;;;16.60;70.20;;;;;;5043897;28;20037;-80
2021/09/28 02:09:44;;;;;;;1.52;1.20;;;16.60;70.20;;;;;;5059489;28;20108;-81
2021/09/28 02:12:10;;;;;;;1.73;1.10;;;16.50;70.20;;;;;;5043312;28;20503;-80
2021/09/28 02:14:35;;;;;;;2.13;1.10;;;16.60;70.30;;;;;;5062132;28;20393;-80
2021/09/28 02:17:01;;;;;;;1.10;1.00;;;16.50;70.20;;;;;;5044914;28;20040;-80
2021/09/28 02:19:27;;;;;;;2.22;1.08;;;16.50;70.20;;;;;;5053762;28;20044;-80
2021/09/28 02:21:53;;;;;;;1.73;1.10;;;16.50;70.20;;;;;;5047849;28;20133;-80
2021/09/28 02:24:18;;;;;;;1.25;1.10;;;16.50;70.20;;;;;;5061910;28;20032;-80
2021/09/28 02:26:45;;;;;;;3.70;1.50;;;16.50;70.30;;;;;;5051263;28;20090;-80
2021/09/28 02:29:11;;;;;;;1.52;1.13;;;16.40;70.20;;;;;;5047603;28;20028;-80
2021/09/28 02:31:38;;;;;;;2.22;1.20;;;16.40;70.20;;;;;;5063985;28;20068;-80
2021/09/28 02:34:06;;;;;;;1.05;0.95;;;16.40;70.30;;;;;;5068207;28;20035;-80
2021/09/28 02:36:38;;;;;;;1.98;1.08;;;16.40;70.30;;;;;;5058751;28;20382;-80
2021/09/28 02:39:08;;;;;;;1.40;1.10;;;16.40;70.30;;;;;;5030291;28;20051;-79
2021/09/28 02:41:37;;;;;;;1.77;1.05;;;16.40;70.30;;;;;;5068168;28;20025;-80
2021/09/28 02:44:05;;;;;;;1.42;1.23;;;16.30;70.20;;;;;;5058744;28;20032;-80
2021/09/28 02:46:32;;;;;;;1.85;1.02;;;16.30;70.20;;;;;;5027731;28;20037;-81
2021/09/28 02:48:58;;;;;;;1.55;1.10;;;16.30;70.30;;;;;;5064876;28;20026;-79
2021/09/28 02:51:24;;;;;;;1.92;1.20;;;16.30;70.30;;;;;;5058885;28;20067;-80
2021/09/28 02:53:50;;;;;;;2.28;1.10;;;16.30;70.30;;;;;;5041506;28;20060;-80
2021/09/28 02:56:15;;;;;;;1.55;1.10;;;16.30;70.30;;;;;;5023713;28;20025;-80
2021/09/28 02:58:41;;;;;;;2.10;1.20;;;16.30;70.40;;;;;;5052912;28;20037;-80
2021/09/28 03:01:07;;;;;;;2.45;1.20;;;16.20;70.30;;;;;;5067720;28;20409;-80
2021/09/28 03:03:33;;;;;;;1.92;0.90;;;16.20;70.90;;;;;;5069244;28;20039;-81
2021/09/28 03:05:58;;;;;;;1.83;1.20;;;16.20;70.30;;;;;;5036881;28;20426;-80
2021/09/28 03:08:24;;;;;;;2.03;1.20;;;16.20;70.30;;;;;;5057449;28;20036;-80
2021/09/28 03:10:50;;;;;;;3.15;1.13;;;16.20;70.70;;;;;;5031574;28;20036;-82
2021/09/28 03:13:16;;;;;;;2.45;1.00;;;16.20;70.40;;;;;;5051926;28;20374;-80
2021/09/28 03:15:41;;;;;;;2.00;1.20;;;16.20;70.40;;;;;;5052389;28;20035;-80
2021/09/28 03:18:07;;;;;;;1.98;1.38;;;16.10;70.30;;;;;;5044251;28;20025;-80
2021/09/28 03:20:33;;;;;;;2.17;1.20;;;16.10;70.40;;;;;;5052255;28;20036;-81
2021/09/28 03:22:59;;;;;;;1.48;1.05;;;16.10;70.40;;;;;;5043396;28;20048;-80
2021/09/28 03:25:25;;;;;;;1.40;1.10;;;16.10;70.40;;;;;;5035876;28;20440;-81
2021/09/28 03:27:50;;;;;;;1.38;0.90;;;16.10;70.40;;;;;;5035449;28;20059;-80
2021/09/28 03:30:16;;;;;;;2.10;1.20;;;16.10;70.40;;;;;;5035790;28;20064;-80
2021/09/28 03:32:42;;;;;;;1.90;1.13;;;16.00;70.40;;;;;;5062284;28;20133;-81
2021/09/28 03:35:10;;;;;;;1.77;1.08;;;16.10;70.40;;;;;;5042751;28;20044;-81
2021/09/28 03:37:37;;;;;;;1.88;0.93;;;16.00;70.40;;;;;;5052980;28;20021;-80
2021/09/28 03:40:04;;;;;;;2.25;1.00;;;16.00;70.40;;;;;;5060651;28;20111;-80
2021/09/28 03:42:30;;;;;;;2.08;1.23;;;16.00;70.40;;;;;;5062288;28;20028;-81
2021/09/28 03:44:56;;;;;;;1.88;1.10;;;16.00;70.40;;;;;;5046683;28;20032;-80
2021/09/28 03:47:22;;;;;;;2.47;1.20;;;16.00;70.40;;;;;;5053335;28;20079;-80
2021/09/28 03:49:47;;;;;;;1.98;1.20;;;16.00;70.40;;;;;;5040557;28;20404;-80
2021/09/28 03:52:13;;;;;;;1.50;1.05;;;15.90;70.40;;;;;;5034189;28;20041;-80
2021/09/28 03:54:39;;;;;;;1.55;1.20;;;16.00;70.40;;;;;;5042172;28;20033;-80
2021/09/28 03:57:04;;;;;;;2.20;1.00;;;15.90;70.40;;;;;;5053709;28;20468;-82
2021/09/28 03:59:30;;;;;;;1.35;1.15;;;15.90;70.40;;;;;;5053495;28;20029;-80
2021/09/28 04:01:56;;;;;;;1.58;1.33;;;15.90;70.40;;;;;;5046509;28;20044;-80
2021/09/28 04:04:22;;;;;;;2.63;1.10;;;15.90;70.40;;;;;;5062393;28;20496;-80
2021/09/28 04:06:47;;;;;;;1.98;1.10;;;15.90;70.50;;;;;;5054610;28;20489;-80
2021/09/28 04:09:13;;;;;;;1.25;0.90;;;15.90;70.50;;;;;;5043198;28;20053;-80
2021/09/28 04:11:40;;;;;;;2.05;1.33;;;15.80;70.50;;;;;;5031675;28;20481;-80
2021/09/28 04:14:07;;;;;;;2.03;1.10;;;15.80;70.50;;;;;;5023283;28;20037;-81
2021/09/28 04:16:33;;;;;;;3.03;1.27;;;15.80;70.50;;;;;;5043679;28;20048;-80
2021/09/28 04:18:58;;;;;;;2.45;1.10;;;15.80;70.50;;;;;;5051154;28;20028;-80
2021/09/28 04:21:27;;;;;;;2.90;1.23;;;15.80;70.50;;;;;;5048389;28;20033;-81
2021/09/28 04:23:53;;;;;;;1.48;1.08;;;15.80;70.60;;;;;;5042151;28;20122;-82
2021/09/28 04:26:19;;;;;;;1.70;1.17;;;15.80;70.50;;;;;;5051221;28;20465;-80
2021/09/28 04:28:45;;;;;;;1.13;1.02;;;15.70;70.50;;;;;;5032562;28;20067;-80
2021/09/28 04:31:14;;;;;;;2.15;1.10;;;15.70;70.60;;;;;;5050750;28;20029;-80
2021/09/28 04:33:40;;;;;;;2.33;1.10;;;15.70;70.50;;;;;;5055569;28;20024;-81
2021/09/28 04:36:06;;;;;;;1.95;1.00;;;15.70;70.50;;;;;;5035987;28;20047;-80
2021/09/28 04:38:32;;;;;;;1.90;1.02;;;15.70;70.60;;;;;;5023355;28;20020;-79
2021/09/28 04:40:58;;;;;;;1.27;0.90;;;15.70;70.60;;;;;;5029184;28;20033;-80
2021/09/28 04:43:24;;;;;;;1.35;1.00;;;15.70;70.60;;;;;;5037420;28;20462;-80
2021/09/28 04:45:50;;;;;;;1.35;1.00;;;15.70;70.60;;;;;;5021364;28;20037;-80
2021/09/28 04:48:15;;;;;;;1.63;1.25;;;15.70;70.60;;;;;;5040851;28;20030;-81
2021/09/28 04:50:41;;;;;;;2.92;1.20;;;15.60;70.50;;;;;;5037411;28;20022;-80
2021/09/28 04:53:07;;;;;;;1.25;1.02;;;15.60;70.50;;;;;;5048199;28;20125;-80
2021/09/28 04:55:33;;;;;;;2.13;1.20;;;15.60;70.50;;;;;;5063825;28;20459;-80
2021/09/28 04:57:58;;;;;;;2.47;1.40;;;15.60;70.60;;;;;;5031803;28;20499;-81
2021/09/28 05:00:24;;;;;;;1.23;1.00;;;15.60;70.60;;;;;;5025396;28;20749;-80
2021/09/28 05:02:50;;;;;;;1.98;1.13;;;15.60;70.60;;;;;;5041251;28;20041;-81
2021/09/28 05:05:16;;;;;;;0.90;0.85;;;15.60;70.60;;;;;;5061596;28;20562;-82
2021/09/28 05:07:42;;;;;;;1.30;0.95;;;15.60;70.60;;;;;;5056403;28;20029;-80
2021/09/28 05:10:08;;;;;;;1.10;1.00;;;15.50;70.50;;;;;;5048712;28;20119;-80
2021/09/28 05:12:35;;;;;;;2.70;1.20;;;15.50;70.50;;;;;;5061457;28;20049;-80
2021/09/28 05:15:01;;;;;;;1.90;1.00;;;15.50;71.20;;;;;;5047542;28;20041;-77
2021/09/28 05:17:27;;;;;;;1.50;1.00;;;15.50;70.60;;;;;;5055137;28;20032;-79
2021/09/28 05:19:53;;;;;;;1.58;1.10;;;15.50;70.60;;;;;;5054618;28;20041;-80
2021/09/28 05:22:18;;;;;;;2.72;1.10;;;15.50;70.60;;;;;;5045755;28;20508;-80
2021/09/28 05:24:44;;;;;;;1.58;1.08;;;15.40;70.50;;;;;;5061068;28;20155;-80
2021/09/28 05:27:10;;;;;;;2.70;1.30;;;15.50;70.60;;;;;;5040055;28;20119;-80
2021/09/28 05:29:36;;;;;;;1.83;1.02;;;15.50;70.60;;;;;;5054666;28;20037;-77
2021/09/28 05:32:02;;;;;;;2.13;1.00;;;15.40;70.60;;;;;;5027973;28;20056;-82
2021/09/28 05:34:28;;;;;;;1.67;0.90;;;15.40;70.60;;;;;;5027540;28;20025;-80
2021/09/28 05:36:55;;;;;;;2.95;1.30;;;15.40;70.60;;;;;;5012953;28;20031;-80
2021/09/28 05:39:21;;;;;;;1.60;1.17;;;15.40;70.60;;;;;;5037431;28;20021;-78
2021/09/28 05:41:47;;;;;;;1.58;0.90;;;15.40;70.60;;;;;;5029536;28;20047;-77
2021/09/28 05:44:12;;;;;;;2.47;1.00;;;15.40;70.60;;;;;;5066525;28;20033;-76
2021/09/28 05:46:38;;;;;;;1.08;0.93;;;15.40;70.70;;;;;;5065547;28;20051;-77
2021/09/28 05:49:04;;;;;;;2.67;1.27;;;15.40;70.60;;;;;;5090236;28;20078;-79
2021/09/28 05:51:33;;;;;;;1.17;1.08;;;15.30;70.60;;;;;;5061078;28;20087;-79
2021/09/28 05:54:00;;;;;;;1.92;1.15;;;15.30;71.20;;;;;;5063168;28;20052;-79
2021/09/28 05:56:27;;;;;;;1.70;1.00;;;15.30;70.60;;;;;;5062161;28;20029;-78
2021/09/28 05:58:52;;;;;;;1.23;1.08;;;15.30;70.60;;;;;;5053980;28;20033;-79
2021/09/28 06:01:18;;;;;;;1.40;1.08;;;15.30;70.60;;;;;;5062282;28;20376;-78
2021/09/28 06:03:44;;;;;;;2.63;1.30;;;15.30;70.70;;;;;;5063681;28;20856;-78
2021/09/28 06:06:10;;;;;;;2.40;1.00;;;15.30;70.60;;;;;;5055776;28;20056;-80
2021/09/28 06:08:36;;;;;;;1.20;1.10;;;15.30;70.70;;;;;;5069111;28;20407;-78
2021/09/28 06:11:02;;;;;;;2.20;1.30;;;15.30;70.70;;;;;;5047526;28;20106;-81
2021/09/28 06:13:28;;;;;;;1.20;1.00;;;15.30;71.30;;;;;;5030777;28;20063;-79
2021/09/28 06:15:56;;;;;;;2.88;1.25;;;15.20;70.60;;;;;;5067920;28;20029;-79
2021/09/28 06:18:23;;;;;;;3.38;1.10;;;15.20;70.70;;;;;;5061578;28;20037;-79
2021/09/28 06:20:49;;;;;;;2.00;1.23;;;15.20;70.70;;;;;;5062778;28;20487;-79
2021/09/28 06:23:15;;;;;;;2.55;1.45;;;15.20;70.70;;;;;;5057972;28;20025;-79
2021/09/28 06:25:41;;;;;;;2.60;1.20;;;15.20;70.70;;;;;;5056886;28;20037;-79
2021/09/28 06:28:07;;;;;;;3.17;1.10;;;15.20;70.70;;;;;;5044454;28;20037;-78
2021/09/28 06:30:32;;;;;;;3.42;1.48;;;15.20;70.70;;;;;;5061526;28;20053;-79
2021/09/28 06:32:59;;;;;;;2.08;1.30;;;15.20;70.70;;;;;;5044815;28;20397;-79
2021/09/28 06:35:25;;;;;;;2.05;1.13;;;15.20;70.70;;;;;;5036176;28;20040;-78
2021/09/28 06:37:51;;;;;;;2.83;1.30;;;15.10;70.70;;;;;;5048272;28;20029;-79
2021/09/28 06:40:16;;;;;;;1.30;1.20;;;15.10;70.70;;;;;;5062551;28;20021;-80
2021/09/28 06:42:42;;;;;;;1.98;1.10;;;15.10;70.70;;;;;;5041924;28;20040;-79
2021/09/28 06:45:08;;;;;;;1.20;0.95;;;15.10;70.70;;;;;;5055409;28;20458;-79
2021/09/28 06:47:34;;;;;;;2.15;1.05;;;15.10;70.80;;;;;;5031975;28;20013;-79
2021/09/28 06:50:00;;;;;;;1.48;1.20;;;15.10;70.70;;;;;;4999996;28;20041;-79
2021/09/28 06:52:26;;;;;;;1.20;1.00;;;15.10;70.80;;;;;;5068185;28;20045;-78
2021/09/28 06:54:51;;;;;;;1.77;1.10;;;15.10;70.80;;;;;;5043871;28;20041;-79
2021/09/28 06:57:17;;;;;;;2.33;1.23;;;15.10;70.80;;;;;;5052281;28;20063;-81
2021/09/28 06:59:43;;;;;;;2.15;1.30;;;15.10;70.80;;;;;;5041838;28;20083;-81
2021/09/28 07:02:09;;;;;;;1.65;1.05;;;15.10;70.80;;;;;;5041123;28;20467;-81
2021/09/28 07:04:35;;;;;;;1.40;1.00;;;15.10;70.80;;;;;;5059131;28;20034;-79
2021/09/28 07:07:02;;;;;;;3.20;1.27;;;15.10;70.90;;;;;;5062109;28;20055;-81
2021/09/28 07:09:28;;;;;;;0.93;0.90;;;15.10;70.90;;;;;;5047301;28;20030;-80
2021/09/28 07:11:54;;;;;;;2.22;1.30;;;15.10;71.00;;;;;;5064150;28;20452;-81
2021/09/28 07:14:20;;;;;;;3.05;1.30;;;15.10;70.90;;;;;;5059457;28;20037;-81
2021/09/28 07:16:46;;;;;;;2.40;1.23;;;15.10;71.00;;;;;;5061546;28;20029;-81
2021/09/28 07:19:12;;;;;;;1.98;1.10;;;15.10;71.00;;;;;;5035464;28;20112;-80
2021/09/28 07:21:38;;;;;;;2.28;1.30;;;15.10;71.00;;;;;;5060388;28;20127;-80
2021/09/28 07:24:04;;;;;;;1.30;1.00;;;15.10;71.00;;;;;;5035651;28;20028;-80
2021/09/28 07:26:30;;;;;;;1.20;1.10;;;15.10;71.00;;;;;;5046423;28;20123;-81
2021/09/28 07:28:56;;;;;;;2.38;1.30;;;15.10;71.00;;;;;;5062701;28;20108;-80
2021/09/28 07:31:22;;;;;;;2.67;1.38;;;15.10;71.10;;;;;;5063659;28;20215;-80
2021/09/28 07:33:48;;;;;;;1.80;1.30;;;15.10;71.10;;;;;;5056237;28;20484;-81
2021/09/28 07:36:13;;;;;;;2.38;1.17;;;15.10;71.10;;;;;;5043651;28;20041;-81
2021/09/28 07:38:40;;;;;;;1.80;1.20;;;15.10;71.10;;;;;;5061342;28;20021;-79
2021/09/28 07:41:07;;;;;;;1.77;1.20;;;15.10;71.10;;;;;;5028131;28;20114;-80
2021/09/28 07:43:33;;;;;;;2.88;1.27;;;15.10;71.10;;;;;;5042416;28;20524;-80
2021/09/28 07:45:59;;;;;;;2.60;1.20;;;15.10;71.10;;;;;;5031822;28;20026;-81
2021/09/28 07:48:25;;;;;;;1.52;1.23;;;15.10;71.10;;;;;;5063657;28;20036;-81
2021/09/28 07:50:51;;;;;;;1.55;1.08;;;15.10;71.20;;;;;;5060114;28;20531;-81
2021/09/28 07:53:23;;;;;;;1.67;1.10;;;15.20;71.20;;;;;;5061485;28;20049;-79
2021/09/28 07:55:49;;;;;;;2.85;1.25;;;15.10;71.20;;;;;;5025369;28;20029;-80
2021/09/28 07:58:14;;;;;;;2.42;1.35;;;15.20;71.20;;;;;;5051135;28;20036;-80
2021/09/28 08:00:42;;;;;;;2.22;1.30;;;15.10;71.20;;;;;;5056189;28;20025;-80
2021/09/28 08:03:09;;;;;;;1.80;1.20;;;15.20;71.20;;;;;;5066032;28;20033;-79
2021/09/28 08:05:35;;;;;;;1.55;1.02;;;15.20;71.30;;;;;;5051418;28;20057;-80
2021/09/28 08:08:01;;;;;;;1.85;1.13;;;15.20;71.20;;;;;;5052575;28;20029;-80
2021/09/28 08:10:26;;;;;;;1.65;1.17;;;15.20;71.30;;;;;;5042197;28;20029;-79
2021/09/28 08:12:52;;;;;;;1.88;1.10;;;15.20;71.30;;;;;;5048367;28;20070;-81
2021/09/28 08:15:18;;;;;;;2.03;1.15;;;15.20;71.30;;;;;;5057719;28;20045;-80
2021/09/28 08:17:44;;;;;;;1.25;0.98;;;15.20;71.30;;;;;;5069289;28;20393;-81
2021/09/28 08:20:11;;;;;;;1.20;1.10;;;15.20;71.30;;;;;;5062922;28;20025;-78
2021/09/28 08:22:39;;;;;;;2.08;1.17;;;15.20;71.30;;;;;;5038101;28;20037;-80
2021/09/28 08:25:09;;;;;;;1.45;1.00;;;15.30;71.40;;;;;;5030561;28;20028;-81
2021/09/28 08:30:20;;;;;;;1.20;1.05;;;15.30;71.40;;;;;;5056667;28;20080;-81
2021/09/28 08:32:45;;;;;;;2.00;1.23;;;15.30;71.30;;;;;;5058097;28;20037;-81
2021/09/28 08:35:11;;;;;;;1.23;1.08;;;15.30;71.40;;;;;;5049246;28;20459;-80
2021/09/28 08:37:37;;;;;;;1.73;1.10;;;15.30;71.40;;;;;;5050081;28;20475;-80
2021/09/28 08:40:04;;;;;;;1.10;1.00;;;15.40;71.50;;;;;;5042695;28;20228;-80
2021/09/28 08:42:30;;;;;;;1.55;1.08;;;15.40;71.50;;;;;;5058661;28;20087;-80
2021/09/28 08:44:56;;;;;;;2.20;1.30;;;15.40;71.50;;;;;;5059008;28;20091;-80
2021/09/28 08:47:39;;;;;;;1.27;1.10;;;15.40;71.50;;;;;;5027742;28;20128;-80
2021/09/28 08:50:08;;;;;;;1.10;1.00;;;15.40;71.70;;;;;;5062159;28;20082;-80
2021/09/28 08:52:39;;;;;;;2.85;1.40;;;15.40;71.60;;;;;;5056616;28;20009;-82
2021/09/28 08:55:06;;;;;;;2.72;1.42;;;15.50;71.70;;;;;;5060570;28;20041;-81
2021/09/28 08:57:32;;;;;;;1.90;1.20;;;15.50;71.70;;;;;;5060601;28;20444;-80
2021/09/28 08:59:59;;;;;;;1.30;1.10;;;15.50;71.70;;;;;;5029206;28;20055;-80
2021/09/28 09:02:57;;;;;;;1.55;1.10;;;15.50;71.70;;;;;;5045409;28;20037;-79
2021/09/28 09:05:26;;;;;;;2.92;1.40;;;15.60;71.90;;;;;;5027613;28;20033;-80
2021/09/28 09:08:00;;;;;;;2.00;1.20;;;15.60;71.60;;;;;;5033962;28;20733;-80
2021/09/28 09:10:29;;;;;;;1.50;1.13;;;15.70;71.80;;;;;;5042349;28;20419;-79
2021/09/28 09:12:55;;;;;;;1.77;1.10;;;15.70;71.70;;;;;;5058286;28;20044;-79
2021/09/28 09:15:31;;;;;;;2.13;1.20;;;15.70;71.60;;;;;;5042265;28;20029;-80
2021/09/28 09:18:05;;;;;;;1.80;1.08;;;15.80;71.70;;;;;;5058559;28;20553;-79
2021/09/28 09:20:41;;;;;;;2.03;1.35;;;15.90;71.70;;;;;;5058741;28;20504;-80
2021/09/28 09:23:27;;;;;;;1.27;1.05;;;15.80;71.60;;;;;;5042302;28;20025;-79
2021/09/28 09:26:16;;;;;;;1.45;1.20;;;15.90;71.70;;;;;;5068244;28;20031;-79
2021/09/28 09:28:50;;;;;;;2.38;1.10;;;16.00;71.70;;;;;;5051471;28;20025;-80
2021/09/28 09:31:17;;;;;;;1.50;1.13;;;16.00;71.50;;;;;;5025638;28;20044;-80
2021/09/28 09:33:45;;;;;;;2.05;1.20;;;16.10;71.60;;;;;;5058411;28;20025;-80
2021/09/28 09:36:16;;;;;;;2.92;1.20;;;16.10;71.50;;;;;;5041939;28;20067;-79
2021/09/28 09:38:45;;;;;;;1.27;1.10;;;16.20;71.50;;;;;;5036942;28;20029;-80
2021/09/28 09:41:10;;;;;;;1.63;1.15;;;16.20;71.50;;;;;;5055127;28;20033;-79
2021/09/28 09:43:36;;;;;;;1.30;1.10;;;16.30;71.40;;;;;;5041491;28;20086;-79
2021/09/28 09:46:13;;;;;;;1.98;1.17;;;16.30;71.40;;;;;;5048978;28;20028;-80
2021/09/28 09:48:41;;;;;;;1.63;1.00;;;16.40;71.40;;;;;;5046245;28;20029;-80
2021/09/28 09:51:15;;;;;;;1.67;1.20;;;16.40;71.30;;;;;;5057227;28;20020;-78
2021/09/28 09:53:53;;;;;;;0.90;0.90;;;16.50;72.00;;;;;;5062095;28;20094;-79
2021/09/28 09:56:19;;;;;;;1.27;1.05;;;16.60;71.50;;;;;;5054037;28;20028;-80
2021/09/28 09:58:45;;;;;;;2.15;1.20;;;16.60;71.30;;;;;;5044269;28;20044;-82
2021/09/28 10:01:11;;;;;;;1.35;1.00;;;16.70;71.40;;;;;;5037239;28;20485;-80
2021/09/28 10:03:38;;;;;;;1.55;1.17;;;16.80;71.40;;;;;;5063531;28;20804;-80
2021/09/28 10:06:08;;;;;;;1.13;1.02;;;16.80;71.40;;;;;;5043250;28;20112;-80
2021/09/28 10:08:40;;;;;;;1.52;0.90;;;16.90;71.40;;;;;;5062023;28;20025;-79
2021/09/28 10:11:07;;;;;;;1.73;1.30;;;17.00;71.40;;;;;;5073178;28;20028;-78
2021/09/28 10:13:45;;;;;;;1.70;1.05;;;17.10;71.30;;;;;;5064751;28;20130;-78
2021/09/28 10:16:36;;;;;;;1.20;0.95;;;17.10;71.30;;;;;;5051933;28;20021;-84
2021/09/28 10:19:04;;;;;;;1.83;1.10;;;17.20;71.30;;;;;;5064253;28;20033;-82
2021/09/28 10:21:42;;;;;;;1.92;0.93;;;17.30;71.00;;;;;;5056709;28;20025;-82
2021/09/28 10:24:17;;;;;;;2.08;1.15;;;17.30;71.00;;;;;;5053574;28;20025;-81
2021/09/28 10:26:45;;;;;;;1.30;0.90;;;17.40;71.10;;;;;;5061381;28;20036;-83
2021/09/28 10:29:48;;;;;;;1.20;1.00;;;17.50;71.00;;;;;;5037712;28;20082;-77
2021/09/28 10:32:26;;;;;;;1.80;0.98;;;17.60;71.20;;;;;;4994813;28;20426;-78
2021/09/28 10:37:41;;;;;;;1.55;1.00;;;17.70;71.00;;;;;;5046940;28;20033;-79
2021/09/28 10:40:08;;;;;;;2.40;1.33;;;17.80;71.00;;;;;;5061027;28;20032;-78
2021/09/28 10:43:00;;;;;;;1.08;0.90;;;17.90;70.90;;;;;;5035971;28;20036;-82
2021/09/28 10:45:29;;;;;;;1.27;1.00;;;18.00;71.20;;;;;;5049276;28;20079;-80
2021/09/28 10:47:56;;;;;;;1.60;1.10;;;18.00;71.10;;;;;;5052488;28;20111;-81
2021/09/28 10:50:32;;;;;;;1.48;0.98;;;18.10;71.10;;;;;;5063120;28;20092;-78
2021/09/28 10:53:01;;;;;;;1.58;1.00;;;18.20;71.20;;;;;;5047698;28;20033;-79
2021/09/28 10:55:30;;;;;;;2.50;1.02;;;18.20;71.30;;;;;;5046187;28;20115;-79
2021/09/28 10:58:03;;;;;;;1.98;1.10;;;18.30;71.40;;;;;;5044502;28;20047;-79
2021/09/28 11:00:49;;;;;;;1.00;0.82;;;18.40;71.50;;;;;;5052618;28;20041;-80
2021/09/28 11:03:16;;;;;;;1.50;0.80;;;18.40;71.70;;;;;;5053701;28;20044;-80
2021/09/28 11:05:44;;;;;;;2.13;1.05;;;18.50;71.50;;;;;;5062010;28;20018;-81
2021/09/28 11:08:12;;;;;;;1.83;1.00;;;18.50;71.50;;;;;;5053917;28;20025;-81
2021/09/28 11:10:38;;;;;;;1.45;0.90;;;18.60;71.60;;;;;;5060923;28;20016;-80
2021/09/28 11:13:07;;;;;;;3.10;1.10;;;18.60;71.50;;;;;;5060234;28;20045;-79
2021/09/28 11:15:33;;;;;;;3.08;1.30;;;18.70;71.60;;;;;;5060156;28;20477;-79
2021/09/28 11:18:10;;;;;;;1.98;1.05;;;18.70;71.60;;;;;;5038683;28;20127;-80
2021/09/28 11:20:37;;;;;;;1.10;0.90;;;18.70;71.70;;;;;;5055895;28;20475;-78
2021/09/28 11:23:08;;;;;;;2.35;1.15;;;18.80;71.70;;;;;;5043349;28;20084;-81
2021/09/28 11:25:47;;;;;;;2.13;1.10;;;18.80;71.90;;;;;;5059843;28;20021;-78
2021/09/28 11:28:16;;;;;;;0.93;0.80;;;18.90;72.00;;;;;;5060531;28;20120;-79
2021/09/28 11:30:55;;;;;;;1.30;0.88;;;18.90;72.00;;;;;;5059584;28;20025;-80
2021/09/28 11:33:22;;;;;;;1.73;0.95;;;18.90;72.20;;;;;;5062460;28;20484;-78
2021/09/28 11:35:57;;;;;;;2.08;0.85;;;18.90;72.20;;;;;;5062397;28;20075;-79
2021/09/28 11:38:28;;;;;;;1.88;1.00;;;19.00;72.40;;;;;;5043246;28;20032;-80
2021/09/28 11:41:07;;;;;;;0.93;0.80;;;19.00;72.40;;;;;;5055253;28;20061;-78
2021/09/28 11:43:35;;;;;;;1.88;0.95;;;19.00;72.50;;;;;;5041600;28;20470;-80
2021/09/28 11:46:05;;;;;;;2.30;0.95;;;19.00;72.50;;;;;;5057064;28;20531;-78
2021/09/28 11:48:44;;;;;;;2.10;1.00;;;19.00;72.50;;;;;;5054171;28;20032;-80
2021/09/28 11:51:16;;;;;;;1.50;0.90;;;19.10;72.70;;;;;;5060226;28;20020;-79
2021/09/28 11:53:44;;;;;;;1.67;1.15;;;19.10;72.60;;;;;;5026935;28;20029;-79
2021/09/28 11:56:12;;;;;;;1.15;0.75;;;19.10;72.60;;;;;;5058849;28;20020;-79
2021/09/28 11:58:39;;;;;;;1.55;1.00;;;19.10;72.60;;;;;;5043409;28;20035;-79
2021/09/28 12:01:07;;;;;;;3.30;0.88;;;19.10;72.60;;;;;;5049052;28;20465;-79
2021/09/28 12:03:35;;;;;;;1.90;1.00;;;19.20;72.70;;;;;;5062667;28;20496;-80
2021/09/28 12:06:06;;;;;;;1.55;0.82;;;19.20;72.70;;;;;;5058335;28;20478;-79
2021/09/28 12:08:33;;;;;;;1.85;0.90;;;19.20;72.70;;;;;;5059978;28;20032;-79
2021/09/28 12:11:04;;;;;;;2.05;0.93;;;19.20;72.70;;;;;;5055698;28;20024;-79
2021/09/28 12:13:31;;;;;;;1.65;0.90;;;19.20;72.70;;;;;;5079420;28;20090;-80
2021/09/28 12:16:08;;;;;;;1.75;0.85;;;19.30;72.70;;;;;;5043505;28;20086;-80
2021/09/28 12:18:34;;;;;;;1.38;0.98;;;19.30;72.70;;;;;;5059723;28;20029;-79
2021/09/28 12:21:23;;;;;;;1.75;0.90;;;19.30;72.60;;;;;;5051850;28;20159;-79
2021/09/28 12:24:10;;;;;;;1.45;0.90;;;19.30;72.70;;;;;;5059818;28;20028;-79
2021/09/28 12:26:36;;;;;;;1.08;0.80;;;19.30;72.70;;;;;;5059214;28;20420;-79
2021/09/28 12:29:11;;;;;;;1.95;0.90;;;19.30;72.50;;;;;;5059256;28;20025;-80
2021/09/28 12:31:38;;;;;;;3.03;1.10;;;19.40;72.70;;;;;;5039965;28;20068;-79
2021/09/28 12:34:05;;;;;;;1.75;0.90;;;19.40;72.50;;;;;;5028001;28;20417;-80
2021/09/28 12:36:31;;;;;;;1.15;0.70;;;19.40;72.50;;;;;;5051912;28;20028;-79
2021/09/28 12:39:15;;;;;;;1.23;0.82;;;19.40;72.40;;;;;;5058801;28;20039;-80
2021/09/28 12:41:56;;;;;;;2.42;0.98;;;19.50;72.70;;;;;;5036866;28;20039;-80
2021/09/28 12:44:23;;;;;;;1.98;0.85;;;19.50;72.50;;;;;;5059903;28;20412;-78
2021/09/28 12:46:49;;;;;;;1.02;0.70;;;19.50;72.40;;;;;;5042421;28;20468;-79
2021/09/28 12:49:32;;;;;;;1.45;0.77;;;19.50;72.30;;;;;;5060462;28;20500;-81
2021/09/28 12:51:59;;;;;;;1.67;0.70;;;19.50;72.40;;;;;;5056516;28;20040;-79
2021/09/28 12:54:27;;;;;;;2.83;0.98;;;19.60;72.20;;;;;;5060681;28;20120;-80
2021/09/28 12:56:54;;;;;;;2.42;1.10;;;19.60;72.20;;;;;;5058235;28;20037;-81
2021/09/28 12:59:20;;;;;;;1.15;0.80;;;19.60;72.10;;;;;;5058854;28;20037;-80